createdAt,value
2018-07-21T00:00:50.468Z,5.67
2018-07-21T00:03:19.340Z,5.67
2018-07-21T00:05:47.890Z,6.30
2018-07-21T00:08:16.680Z,5.70
2018-07-21T00:10:45.548Z,5.80
2018-07-21T00:13:14.368Z,5.60
2018-07-21T00:15:43.155Z,5.47
2018-07-21T00:18:12.127Z,6.03
2018-07-21T00:20:41.074Z,5.50
2018-07-21T00:23:09.892Z,4.90
2018-07-21T00:25:38.729Z,4.87
2018-07-21T00:28:07.722Z,5.00
2018-07-21T00:30:36.544Z,4.73
2018-07-21T00:33:05.360Z,5.03
2018-07-21T00:35:40.242Z,5.03
2018-07-21T00:38:09.705Z,5.30
2018-07-21T00:40:38.487Z,5.13
2018-07-21T00:43:07.471Z,5.23
2018-07-21T00:45:36.291Z,5.33
2018-07-21T00:48:05.161Z,5.17
2018-07-21T00:50:33.951Z,4.93
2018-07-21T00:53:02.988Z,4.87
2018-07-21T00:55:32.883Z,5.40
2018-07-21T00:58:01.788Z,5.73
2018-07-21T01:00:30.663Z,4.80
2018-07-21T01:02:59.462Z,5.77
2018-07-21T01:05:28.347Z,5.80
2018-07-21T01:07:57.212Z,5.70
2018-07-21T01:10:29.607Z,5.07
2018-07-21T01:12:58.443Z,5.10
2018-07-21T01:15:27.231Z,5.50
2018-07-21T01:17:56.068Z,5.37
2018-07-21T01:20:24.915Z,4.97
2018-07-21T01:22:53.804Z,5.83
2018-07-21T01:25:22.614Z,5.13
2018-07-21T01:27:51.426Z,5.23
2018-07-21T01:30:20.363Z,5.57
2018-07-21T01:32:49.255Z,5.40
2018-07-21T01:35:18.138Z,5.20
2018-07-21T01:37:46.919Z,5.47
2018-07-21T01:40:16.852Z,5.70
2018-07-21T01:42:45.733Z,5.97
2018-07-21T01:45:14.583Z,5.70
2018-07-21T01:47:43.379Z,6.00
2018-07-21T01:50:12.187Z,5.73
2018-07-21T01:52:41.027Z,5.63
2018-07-21T01:55:09.900Z,5.63
2018-07-21T01:57:38.743Z,5.93
2018-07-21T02:00:07.663Z,5.57
2018-07-21T02:02:36.580Z,6.20
2018-07-21T02:05:06.137Z,5.93
2018-07-21T02:07:35.051Z,5.67
2018-07-21T02:10:04.047Z,5.87
2018-07-21T02:12:32.961Z,5.67
2018-07-21T02:15:01.732Z,5.43
2018-07-21T02:17:30.520Z,5.67
2018-07-21T02:19:59.308Z,6.00
2018-07-21T02:22:28.167Z,6.20
2018-07-21T02:24:56.996Z,5.93
2018-07-21T02:27:25.768Z,6.00
2018-07-21T02:29:54.603Z,6.30
2018-07-21T02:32:23.583Z,6.20
2018-07-21T02:34:52.363Z,6.00
2018-07-21T02:37:21.149Z,6.57
2018-07-21T02:39:50.063Z,6.90
2018-07-21T02:42:18.887Z,6.30
2018-07-21T02:44:47.803Z,6.57
2018-07-21T02:47:16.582Z,6.60
2018-07-21T02:49:46.391Z,6.47
2018-07-21T02:52:15.280Z,6.60
2018-07-21T02:54:44.214Z,6.60
2018-07-21T02:57:12.985Z,6.60
2018-07-21T02:59:41.843Z,6.30
2018-07-21T03:02:10.668Z,6.83
2018-07-21T03:04:39.487Z,6.53
2018-07-21T03:07:08.419Z,7.03
2018-07-21T03:09:37.358Z,6.90
2018-07-21T03:12:06.246Z,6.73
2018-07-21T03:14:35.074Z,7.20
2018-07-21T03:17:03.856Z,6.27
2018-07-21T03:19:32.751Z,6.40
2018-07-21T03:22:01.555Z,6.17
2018-07-21T03:24:30.379Z,6.27
2018-07-21T03:26:59.155Z,7.00
2018-07-21T03:29:27.999Z,6.03
2018-07-21T03:31:56.887Z,6.10
2018-07-21T03:34:25.603Z,5.77
2018-07-21T03:36:54.412Z,6.40
2018-07-21T03:39:23.295Z,6.60
2018-07-21T03:41:52.117Z,6.17
2018-07-21T03:44:20.871Z,6.50
2018-07-21T03:46:49.702Z,6.03
2018-07-21T03:49:18.692Z,6.30
2018-07-21T03:51:47.487Z,6.63
2018-07-21T03:54:16.287Z,7.17
2018-07-21T03:56:45.087Z,6.63
2018-07-21T03:59:14.014Z,6.40
2018-07-21T04:01:42.833Z,6.47
2018-07-21T04:04:11.594Z,5.90
2018-07-21T04:06:40.622Z,5.73
2018-07-21T04:09:10.863Z,5.17
2018-07-21T04:11:39.943Z,5.10
2018-07-21T04:14:09.160Z,4.97
2018-07-21T04:16:38.214Z,5.40
2018-07-21T04:19:07.748Z,5.00
2018-07-21T04:21:36.578Z,4.60
2018-07-21T04:24:05.456Z,4.33
2018-07-21T04:26:34.215Z,4.27
2018-07-21T04:29:04.279Z,4.47
2018-07-21T04:31:33.891Z,4.43
2018-07-21T04:34:02.718Z,4.00
2018-07-21T04:36:31.557Z,4.40
2018-07-21T04:39:00.449Z,4.10
2018-07-21T04:41:29.222Z,4.53
2018-07-21T04:43:58.008Z,5.00
2018-07-21T04:46:26.835Z,5.13
2018-07-21T04:48:55.691Z,4.90
2018-07-21T04:51:24.523Z,4.70
2018-07-21T04:53:53.329Z,5.20
2018-07-21T04:56:22.837Z,5.07
2018-07-21T04:58:51.614Z,5.27
2018-07-21T05:01:20.395Z,5.00
2018-07-21T05:03:49.380Z,5.40
2018-07-21T05:06:18.251Z,5.30
2018-07-21T05:08:47.171Z,5.33
2018-07-21T05:11:15.955Z,5.10
2018-07-21T05:13:44.831Z,5.17
2018-07-21T05:16:13.681Z,5.23
2018-07-21T05:18:42.553Z,5.20
2018-07-21T05:21:11.362Z,5.73
2018-07-21T05:23:40.346Z,5.50
2018-07-21T05:26:09.367Z,5.70
2018-07-21T05:28:38.245Z,5.27
2018-07-21T05:31:07.080Z,5.50
2018-07-21T05:33:35.927Z,5.93
2018-07-21T05:36:04.787Z,5.97
2018-07-21T05:38:33.679Z,5.70
2018-07-21T05:41:02.495Z,5.80
2018-07-21T05:43:31.303Z,5.77
2018-07-21T05:46:00.115Z,5.33
2018-07-21T05:48:28.920Z,5.43
2018-07-21T05:50:57.748Z,6.00
2018-07-21T05:53:26.543Z,5.80
2018-07-21T05:55:55.447Z,6.10
2018-07-21T05:58:24.259Z,5.50
2018-07-21T06:00:53.047Z,5.87
2018-07-21T06:03:25.485Z,5.80
2018-07-21T06:05:54.315Z,6.13
2018-07-21T06:08:23.171Z,6.17
2018-07-21T06:10:52.169Z,5.73
2018-07-21T06:13:20.953Z,6.60
2018-07-21T06:15:49.723Z,6.73
2018-07-21T06:18:18.602Z,6.30
2018-07-21T06:20:47.730Z,6.20
2018-07-21T06:23:16.523Z,6.53
2018-07-21T06:25:45.328Z,6.10
2018-07-21T06:28:14.149Z,6.80
2018-07-21T06:30:42.928Z,6.60
2018-07-21T06:33:11.711Z,6.47
2018-07-21T06:35:40.489Z,5.80
2018-07-21T06:38:09.312Z,6.13
2018-07-21T06:40:38.205Z,6.33
2018-07-21T06:43:07.123Z,6.53
2018-07-21T06:45:35.945Z,6.23
2018-07-21T06:48:05.918Z,5.93
2018-07-21T06:50:34.749Z,5.70
2018-07-21T06:53:03.600Z,7.00
2018-07-21T06:55:32.404Z,6.10
2018-07-21T06:58:01.224Z,6.50
2018-07-21T07:00:30.068Z,6.27
2018-07-21T07:02:58.894Z,6.30
2018-07-21T07:05:28.095Z,5.77
2018-07-21T07:07:56.991Z,5.50
2018-07-21T07:10:25.850Z,5.07
2018-07-21T07:12:54.972Z,5.13
2018-07-21T07:15:23.851Z,5.37
2018-07-21T07:17:52.668Z,5.33
2018-07-21T07:20:21.534Z,4.67
2018-07-21T07:22:50.371Z,5.70
2018-07-21T07:25:19.284Z,5.40
2018-07-21T07:27:48.083Z,5.33
2018-07-21T07:30:17.000Z,5.33
2018-07-21T07:32:45.895Z,5.23
2018-07-21T07:35:14.747Z,4.53
2018-07-21T07:37:43.599Z,5.00
2018-07-21T07:40:12.423Z,8.30
2018-07-21T07:42:41.343Z,9.53
2018-07-21T07:45:10.252Z,4.50
2018-07-21T07:47:39.074Z,5.20
2018-07-21T07:50:08.139Z,4.90
2018-07-21T07:52:36.968Z,4.67
2018-07-21T07:55:06.071Z,4.70
2018-07-21T07:57:34.891Z,5.00
2018-07-21T08:00:04.199Z,4.67
2018-07-21T08:02:33.015Z,4.60
2018-07-21T08:05:01.816Z,4.97
2018-07-21T08:07:30.647Z,4.90
2018-07-21T08:09:59.460Z,5.67
2018-07-21T08:12:28.308Z,6.00
2018-07-21T08:14:57.207Z,5.50
2018-07-21T08:17:26.139Z,5.20
2018-07-21T08:19:54.706Z,5.00
2018-07-21T08:22:23.539Z,5.03
2018-07-21T08:24:52.493Z,5.30
2018-07-21T08:27:21.283Z,6.17
2018-07-21T08:29:50.170Z,5.77
2018-07-21T08:32:18.961Z,5.80
2018-07-21T08:34:47.844Z,5.60
2018-07-21T08:37:16.834Z,5.53
2018-07-21T08:39:45.739Z,5.90
2018-07-21T08:42:14.583Z,5.83
2018-07-21T08:44:43.404Z,6.03
2018-07-21T08:47:12.346Z,5.93
2018-07-21T08:49:41.333Z,5.17
2018-07-21T08:52:10.192Z,5.70
2018-07-21T08:54:38.772Z,6.20
2018-07-21T08:57:07.685Z,6.23
2018-07-21T08:59:36.556Z,6.07
2018-07-21T09:02:05.601Z,5.53
2018-07-21T09:04:34.506Z,6.63
2018-07-21T09:07:03.379Z,6.47
2018-07-21T09:09:32.375Z,5.67
2018-07-21T09:12:01.215Z,6.20
2018-07-21T09:14:30.108Z,5.97
2018-07-21T09:17:00.017Z,6.50
2018-07-21T09:19:28.841Z,6.03
2018-07-21T09:21:58.787Z,5.90
2018-07-21T09:24:27.675Z,6.27
2018-07-21T09:26:56.917Z,5.70
2018-07-21T09:29:25.721Z,6.00
2018-07-21T09:31:54.698Z,5.80
2018-07-21T09:34:23.594Z,5.77
2018-07-21T09:36:52.429Z,5.87
2018-07-21T09:39:21.330Z,5.73
2018-07-21T09:41:50.718Z,5.77
2018-07-21T09:44:19.965Z,6.30
2018-07-21T09:46:48.794Z,6.50
2018-07-21T09:49:17.718Z,6.37
2018-07-21T09:51:46.552Z,6.70
2018-07-21T09:54:15.464Z,6.90
2018-07-21T09:56:44.368Z,7.23
2018-07-21T09:59:13.231Z,7.33
2018-07-21T10:01:42.228Z,7.27
2018-07-21T10:04:11.120Z,6.33
2018-07-21T10:06:40.088Z,6.97
2018-07-21T10:09:10.050Z,6.37
2018-07-21T10:11:38.895Z,4.70
2018-07-21T10:14:08.429Z,5.13
2018-07-21T10:16:37.292Z,4.07
2018-07-21T10:19:06.363Z,4.90
2018-07-21T10:21:35.298Z,5.27
2018-07-21T10:24:09.413Z,5.30
2018-07-21T10:26:43.736Z,4.97
2018-07-21T10:29:13.828Z,4.67
2018-07-21T10:31:43.743Z,6.07
2018-07-21T10:34:12.706Z,6.67
2018-07-21T10:36:41.991Z,6.83
2018-07-21T10:39:13.367Z,7.10
2018-07-21T10:41:42.870Z,7.10
2018-07-21T10:44:11.490Z,6.57
2018-07-21T10:46:40.563Z,5.97
2018-07-21T10:49:09.471Z,6.23
2018-07-21T10:51:38.380Z,5.90
2018-07-21T10:54:07.375Z,5.90
2018-07-21T10:56:36.312Z,6.23
2018-07-21T10:59:05.199Z,5.97
2018-07-21T11:01:34.456Z,5.97
2018-07-21T11:04:03.307Z,5.30
2018-07-21T11:06:32.140Z,5.20
2018-07-21T11:09:00.980Z,5.33
2018-07-21T11:11:30.175Z,5.20
2018-07-21T11:13:59.048Z,5.10
2018-07-21T11:16:27.913Z,5.90
2018-07-21T11:18:56.878Z,6.37
2018-07-21T11:21:25.742Z,5.90
2018-07-21T11:23:54.595Z,5.90
2018-07-21T11:26:23.675Z,5.40
2018-07-21T11:28:53.077Z,4.80
2018-07-21T11:31:23.013Z,4.40
2018-07-21T11:33:51.835Z,4.17
2018-07-21T11:36:20.674Z,4.33
2018-07-21T11:38:49.751Z,4.40
2018-07-21T11:41:18.579Z,4.20
2018-07-21T11:43:48.550Z,4.60
2018-07-21T11:46:17.491Z,4.90
2018-07-21T11:48:46.328Z,4.80
2018-07-21T11:51:15.196Z,5.30
2018-07-21T11:53:44.511Z,4.70
2018-07-21T11:56:13.355Z,5.10
2018-07-21T11:58:42.176Z,4.73
2018-07-21T12:01:10.975Z,4.70
2018-07-21T12:03:39.955Z,5.00
2018-07-21T12:06:08.824Z,5.30
2018-07-21T12:08:37.780Z,5.67
2018-07-21T12:11:06.576Z,5.60
2018-07-21T12:13:35.589Z,5.43
2018-07-21T12:16:04.300Z,5.20
2018-07-21T12:18:33.149Z,5.03
2018-07-21T12:21:01.952Z,5.20
2018-07-21T12:23:30.794Z,5.10
2018-07-21T12:25:59.611Z,5.67
2018-07-21T12:28:28.497Z,4.50
2018-07-21T12:30:57.315Z,4.67
2018-07-21T12:33:26.123Z,4.83
2018-07-21T12:35:54.970Z,4.03
2018-07-21T12:38:23.827Z,4.20
2018-07-21T12:40:53.650Z,5.00
2018-07-21T12:43:22.486Z,4.70
2018-07-21T12:45:51.343Z,4.47
2018-07-21T12:48:20.148Z,4.60
2018-07-21T12:50:49.027Z,4.90
2018-07-21T12:53:17.840Z,5.40
2018-07-21T12:55:46.661Z,4.77
2018-07-21T12:58:15.451Z,4.97
2018-07-21T13:00:44.291Z,5.47
2018-07-21T13:03:13.113Z,5.50
2018-07-21T13:05:41.987Z,5.00
2018-07-21T13:08:10.836Z,5.23
2018-07-21T13:10:39.668Z,4.80
2018-07-21T13:13:08.455Z,4.63
2018-07-21T13:15:37.239Z,5.60
2018-07-21T13:18:06.069Z,5.80
2018-07-21T13:20:35.072Z,6.00
2018-07-21T13:23:03.901Z,5.30
2018-07-21T13:25:32.687Z,5.13
2018-07-21T13:28:01.524Z,5.50
2018-07-21T13:30:30.315Z,5.50
2018-07-21T13:32:59.187Z,5.30
2018-07-21T13:35:28.048Z,5.73
2018-07-21T13:37:56.880Z,5.67
2018-07-21T13:40:25.679Z,5.20
2018-07-21T13:42:54.479Z,4.57
2018-07-21T13:45:23.307Z,5.03
2018-07-21T13:47:53.258Z,5.00
2018-07-21T13:50:22.076Z,5.07
2018-07-21T13:52:51.016Z,4.50
2018-07-21T13:55:19.828Z,4.97
2018-07-21T13:57:48.679Z,4.60
2018-07-21T14:00:17.566Z,5.33
2018-07-21T14:02:46.399Z,4.10
2018-07-21T14:05:15.275Z,4.60
2018-07-21T14:07:44.166Z,4.50
2018-07-21T14:10:13.033Z,5.17
2018-07-21T14:12:41.759Z,4.47
2018-07-21T14:15:10.855Z,4.20
2018-07-21T14:17:39.711Z,4.60
2018-07-21T14:20:08.619Z,5.00
2018-07-21T14:22:37.471Z,5.00
2018-07-21T14:25:06.290Z,7.37
2018-07-21T14:27:35.107Z,5.57
2018-07-21T14:30:04.499Z,4.97
2018-07-21T14:32:33.263Z,5.30
2018-07-21T14:35:02.072Z,5.87
2018-07-21T14:37:30.883Z,5.67
2018-07-21T14:39:59.702Z,5.57
2018-07-21T14:42:28.545Z,5.80
2018-07-21T14:44:57.357Z,5.67
2018-07-21T14:47:26.175Z,5.50
2018-07-21T14:49:55.027Z,5.80
2018-07-21T14:52:23.846Z,5.50
2018-07-21T14:54:52.728Z,5.53
2018-07-21T14:57:21.483Z,5.57
2018-07-21T14:59:50.283Z,5.40
2018-07-21T15:02:19.098Z,5.93
2018-07-21T15:04:47.923Z,5.30
2018-07-21T15:07:16.711Z,5.70
2018-07-21T15:09:45.504Z,5.90
2018-07-21T15:12:14.344Z,6.27
2018-07-21T15:14:43.134Z,5.00
2018-07-21T15:17:12.071Z,5.50
2018-07-21T15:19:40.968Z,5.33
2018-07-21T15:22:09.958Z,5.17
2018-07-21T15:24:38.823Z,5.83
2018-07-21T15:27:07.634Z,5.80
2018-07-21T15:29:36.483Z,5.50
2018-07-21T15:32:05.303Z,5.43
2018-07-21T15:34:34.190Z,5.10
2018-07-21T15:37:03.003Z,5.37
2018-07-21T15:39:31.854Z,4.97
2018-07-21T15:42:00.705Z,5.70
2018-07-21T15:44:29.524Z,5.30
2018-07-21T15:46:58.335Z,5.60
2018-07-21T15:49:27.247Z,5.57
2018-07-21T15:51:56.114Z,5.20
2018-07-21T15:54:24.975Z,6.43
2018-07-21T15:56:53.527Z,6.30
2018-07-21T15:59:22.491Z,6.13
2018-07-21T16:01:51.403Z,5.53
2018-07-21T16:04:20.238Z,6.77
2018-07-21T16:06:49.165Z,6.47
2018-07-21T16:09:18.038Z,6.10
2018-07-21T16:11:46.871Z,5.53
2018-07-21T16:14:15.691Z,5.67
2018-07-21T16:16:44.763Z,5.70
2018-07-21T16:19:13.624Z,6.50
2018-07-21T16:21:42.447Z,6.17
2018-07-21T16:25:14.542Z,6.70
2018-07-21T16:27:43.354Z,6.87
2018-07-21T16:30:12.226Z,6.03
2018-07-21T16:32:41.076Z,5.77
2018-07-21T16:35:10.073Z,6.00
2018-07-21T16:37:38.947Z,6.10
2018-07-21T16:40:07.775Z,5.00
2018-07-21T16:42:36.584Z,6.63
2018-07-21T16:45:05.535Z,7.27
2018-07-21T16:47:34.447Z,7.00
2018-07-21T16:50:03.283Z,6.77
2018-07-21T16:52:32.108Z,6.03
2018-07-21T16:55:00.957Z,5.40
2018-07-21T16:57:29.761Z,5.63
2018-07-21T16:59:58.693Z,4.87
2018-07-21T17:02:27.518Z,5.50
2018-07-21T17:04:56.411Z,5.77
2018-07-21T17:07:25.271Z,5.40
2018-07-21T17:09:54.087Z,5.40
2018-07-21T17:12:22.891Z,6.30
2018-07-21T17:14:51.718Z,5.93
2018-07-21T17:17:20.522Z,4.80
2018-07-21T17:19:49.363Z,6.13
2018-07-21T17:22:18.248Z,5.27
2018-07-21T17:24:47.336Z,6.07
2018-07-21T17:27:16.143Z,5.77
2018-07-21T17:29:45.019Z,6.50
2018-07-21T17:32:13.758Z,6.57
2018-07-21T17:34:42.551Z,6.90
2018-07-21T17:37:11.540Z,6.10
2018-07-21T17:39:40.399Z,6.20
2018-07-21T17:42:09.191Z,4.90
2018-07-21T17:44:38.183Z,5.80
2018-07-21T17:47:07.011Z,5.70
2018-07-21T17:49:35.835Z,3.73
2018-07-21T17:52:05.527Z,4.60
2018-07-21T17:54:34.363Z,4.70
2018-07-21T17:57:03.184Z,4.10
2018-07-21T17:59:32.027Z,3.13
2018-07-21T18:02:00.819Z,3.50
2018-07-21T18:04:29.705Z,3.40
2018-07-21T18:06:58.534Z,4.20
2018-07-21T18:09:27.370Z,3.90
2018-07-21T18:11:56.256Z,4.80
2018-07-21T18:14:25.065Z,4.27
2018-07-21T18:16:53.935Z,3.80
2018-07-21T18:19:22.718Z,3.77
2018-07-21T18:21:51.572Z,3.67
2018-07-21T18:24:20.364Z,3.97
2018-07-21T18:26:49.178Z,4.87
2018-07-21T18:29:17.967Z,4.07
2018-07-21T18:31:46.838Z,4.43
2018-07-21T18:34:15.582Z,4.67
2018-07-21T18:36:44.407Z,3.80
2018-07-21T18:39:13.336Z,4.60
2018-07-21T18:41:42.177Z,3.90
2018-07-21T18:44:10.947Z,4.20
2018-07-21T18:46:39.735Z,4.63
2018-07-21T18:49:08.731Z,3.87
2018-07-21T18:51:37.548Z,4.50
2018-07-21T18:54:06.413Z,4.13
2018-07-21T18:56:35.366Z,4.23
2018-07-21T18:59:04.151Z,4.30
2018-07-21T19:01:33.126Z,3.93
2018-07-21T19:04:01.932Z,4.40
2018-07-21T19:06:30.730Z,3.87
2018-07-21T19:09:02.375Z,4.13
2018-07-21T19:11:31.863Z,4.07
2018-07-21T19:14:00.667Z,4.00
2018-07-21T19:16:34.887Z,3.60
2018-07-21T19:19:03.672Z,4.03
2018-07-21T19:21:32.527Z,4.10
2018-07-21T19:24:01.247Z,4.53
2018-07-21T19:26:35.377Z,4.93
2018-07-21T19:29:04.248Z,4.80
2018-07-21T19:31:33.100Z,5.33
2018-07-21T19:34:01.923Z,4.60
2018-07-21T19:36:30.721Z,5.03
2018-07-21T19:38:59.502Z,4.50
2018-07-21T19:41:34.570Z,4.80
2018-07-21T19:44:03.387Z,6.63
2018-07-21T19:46:32.195Z,6.70
2018-07-21T19:49:01.135Z,6.37
2018-07-21T19:51:29.925Z,6.67
2018-07-21T19:53:58.716Z,8.20
2018-07-21T19:56:27.546Z,9.60
2018-07-21T19:58:56.296Z,8.00
2018-07-21T20:01:25.063Z,7.60
2018-07-21T20:03:53.835Z,6.57
2018-07-21T20:06:22.651Z,7.83
2018-07-21T20:08:51.427Z,8.47
2018-07-21T20:11:20.199Z,11.80
2018-07-21T20:13:49.048Z,11.07
2018-07-21T20:16:17.859Z,9.07
2018-07-21T20:18:46.699Z,10.23
2018-07-21T20:21:15.508Z,10.57
2018-07-21T20:23:44.367Z,8.33
2018-07-21T20:26:13.163Z,9.57
2018-07-21T20:28:42.031Z,8.20
2018-07-21T20:31:10.811Z,9.47
2018-07-21T20:33:39.612Z,9.87
2018-07-21T20:36:08.456Z,8.63
2018-07-21T20:38:37.383Z,9.57
2018-07-21T20:41:06.348Z,9.87
2018-07-21T20:43:35.235Z,10.57
2018-07-21T20:46:04.025Z,9.53
2018-07-21T20:48:32.881Z,8.87
2018-07-21T20:51:02.454Z,7.10
2018-07-21T20:53:31.302Z,8.60
2018-07-21T20:56:00.171Z,10.07
2018-07-21T20:58:29.049Z,8.37
2018-07-21T21:00:57.872Z,7.67
2018-07-21T21:03:26.742Z,10.53
2018-07-21T21:05:55.684Z,14.73
2018-07-21T21:08:24.512Z,17.57
2018-07-21T21:10:53.368Z,17.00
2018-07-21T21:13:22.212Z,18.33
2018-07-21T21:15:51.823Z,17.77
2018-07-21T21:18:20.670Z,15.80
2018-07-21T21:20:49.488Z,15.10
2018-07-21T21:23:18.606Z,10.73
2018-07-21T21:25:47.499Z,8.77
2018-07-21T21:28:16.372Z,8.00
2018-07-21T21:30:45.160Z,9.90
2018-07-21T21:33:13.954Z,9.87
2018-07-21T21:35:42.810Z,9.17
2018-07-21T21:38:11.782Z,9.40
2018-07-21T21:40:40.650Z,10.10
2018-07-21T21:43:09.473Z,10.90
2018-07-21T21:45:38.395Z,10.23
2018-07-21T21:48:07.407Z,12.13
2018-07-21T21:50:36.136Z,13.20
2018-07-21T21:53:05.095Z,10.73
2018-07-21T21:55:33.944Z,9.57
2018-07-21T21:58:02.871Z,10.60
2018-07-21T22:00:51.480Z,12.50
2018-07-21T22:03:20.391Z,10.93
2018-07-21T22:05:49.383Z,10.63
2018-07-21T22:08:18.237Z,11.53
2018-07-21T22:10:47.112Z,10.60
2018-07-21T22:13:15.999Z,11.27
2018-07-21T22:15:45.033Z,9.43
2018-07-21T22:18:13.923Z,9.27
2018-07-21T22:20:43.072Z,8.23
2018-07-21T22:23:11.911Z,9.03
2018-07-21T22:25:40.729Z,9.97
2018-07-21T22:28:10.339Z,10.47
2018-07-21T22:30:39.205Z,13.37
2018-07-21T22:33:08.207Z,11.87
2018-07-21T22:35:37.732Z,10.17
2018-07-21T22:38:06.650Z,11.47
2018-07-21T22:40:35.468Z,12.00
2018-07-21T22:43:04.524Z,11.77
2018-07-21T22:45:33.432Z,12.67
2018-07-21T22:48:02.289Z,10.23
2018-07-21T22:50:31.129Z,10.80
2018-07-21T22:53:00.163Z,12.17
2018-07-21T22:55:29.037Z,12.00
2018-07-21T22:57:58.007Z,14.07
2018-07-21T23:00:26.895Z,14.33
2018-07-21T23:02:55.792Z,12.77
2018-07-21T23:05:24.788Z,11.83
2018-07-21T23:07:53.786Z,11.50
2018-07-21T23:10:22.698Z,11.77
2018-07-21T23:12:51.878Z,12.00
2018-07-21T23:15:20.853Z,12.03
2018-07-21T23:17:50.912Z,12.73
2018-07-21T23:20:19.575Z,13.07
2018-07-21T23:22:48.337Z,12.47
2018-07-21T23:25:17.225Z,12.27
2018-07-21T23:27:46.177Z,12.40
2018-07-21T23:30:15.148Z,12.43
2018-07-21T23:32:44.070Z,12.97
2018-07-21T23:35:12.977Z,13.70
2018-07-21T23:37:41.911Z,13.00
2018-07-21T23:40:12.508Z,13.57
2018-07-21T23:42:41.381Z,13.67
2018-07-21T23:45:10.602Z,13.07
2018-07-21T23:47:39.413Z,13.40
2018-07-21T23:50:08.524Z,13.60
2018-07-21T23:52:37.473Z,13.00
2018-07-21T23:55:07.348Z,13.90
2018-07-21T23:57:36.434Z,14.03
